Kongolo Airport


Codes: FZRQ/KOO
Name: Kongolo Airport
City: Kongolo
Country: Congo [DRC]
Elevation: 1850 ft.

Photos at Kongolo Airport


   Photos courtesy of SpottingLog. You can add your own sightings and photos by signing up for a free trial today.



No photos found.

Weather at Kongolo Airport


Time (UTC)DescriptionTempratureWindCloud coverageVisibilityPressureHumidity
13-Jun-2024 03:00Few Clouds21°C4 mph, S18%10000m1014hPa58%
13-Jun-2024 06:00Few Clouds23°C7 mph, SE11%10000m1015hPa49%
13-Jun-2024 09:00Clear Sky31°C9 mph, SE6%10000m1015hPa32%
13-Jun-2024 12:00Clear Sky34°C7 mph, SE6%10000m1010hPa28%
13-Jun-2024 15:00Clear Sky33°C4 mph, S6%10000m1009hPa30%
13-Jun-2024 18:00Clear Sky26°C4 mph, S4%10000m1011hPa43%
13-Jun-2024 21:00Clear Sky24°C2 mph, SE1%10000m1013hPa48%
14-Jun-2024 00:00Clear Sky22°C4 mph, S1%10000m1012hPa52%
14-Jun-2024 03:00Clear Sky21°C4 mph, S1%10000m1013hPa54%
14-Jun-2024 06:00Clear Sky25°C7 mph, SE3%10000m1015hPa43%
14-Jun-2024 09:00Clear Sky32°C9 mph, SE7%10000m1014hPa26%
14-Jun-2024 12:00Clear Sky35°C7 mph, SE4%10000m1009hPa22%
14-Jun-2024 15:00Clear Sky34°C4 mph, SE5%10000m1008hPa25%
14-Jun-2024 18:00Clear Sky27°C4 mph, SW2%10000m1010hPa36%
14-Jun-2024 21:00Clear Sky24°C4 mph, SE4%10000m1012hPa42%
15-Jun-2024 00:00Clear Sky22°C4 mph, S2%10000m1010hPa48%
15-Jun-2024 03:00Clear Sky20°C4 mph, S1%10000m1011hPa50%
15-Jun-2024 06:00Clear Sky24°C7 mph, SE3%10000m1013hPa38%
15-Jun-2024 09:00Clear Sky32°C9 mph, SE6%10000m1011hPa22%
15-Jun-2024 12:00Clear Sky35°C7 mph, SE9%10000m1008hPa20%
15-Jun-2024 15:00Few Clouds34°C7 mph, S22%10000m1007hPa24%
15-Jun-2024 18:00Few Clouds26°C4 mph, S15%10000m1009hPa33%
15-Jun-2024 21:00Clear Sky23°C2 mph, S1%10000m1011hPa39%
16-Jun-2024 00:00Clear Sky21°C4 mph, S2%10000m1010hPa41%
16-Jun-2024 03:00Few Clouds19°C4 mph, S11%10000m1011hPa40%
16-Jun-2024 06:00Clear Sky23°C7 mph, S9%10000m1012hPa32%
16-Jun-2024 09:00Scattered Clouds32°C9 mph, SE32%10000m1010hPa20%
16-Jun-2024 12:00Few Clouds36°C7 mph, SE22%10000m1007hPa21%
16-Jun-2024 15:00Few Clouds35°C4 mph, S13%10000m1006hPa24%
16-Jun-2024 18:00Few Clouds27°C4 mph, S12%10000m1009hPa33%
16-Jun-2024 21:00Broken Clouds26°C2 mph, S67%10000m1010hPa35%
17-Jun-2024 00:00Broken Clouds24°C4 mph, S74%10000m1010hPa41%
17-Jun-2024 03:00Clear Sky21°C2 mph, S6%10000m1011hPa47%
17-Jun-2024 06:00Clear Sky25°C4 mph, SE6%10000m1013hPa38%
17-Jun-2024 09:00Few Clouds33°C7 mph, SE14%10000m1012hPa22%
17-Jun-2024 12:00Few Clouds36°C4 mph, SE15%10000m1008hPa19%
17-Jun-2024 15:00Broken Clouds34°C2 mph, E51%10000m1008hPa25%
17-Jun-2024 18:00Broken Clouds28°C2 mph, E72%10000m1010hPa36%
17-Jun-2024 21:00Scattered Clouds25°C2 mph, SE47%10000m1011hPa44%
18-Jun-2024 00:00Few Clouds23°C2 mph, SE24%10000m1010hPa47%